sensor_id;sensor_type;location;lat;lon;timestamp;temperature;humidity
1005;DHT22;491;53.480;10.174;2023-02-23T00:01:26;7.40;99.90
1005;DHT22;491;53.480;10.174;2023-02-23T00:03:54;7.40;99.90
1005;DHT22;491;53.480;10.174;2023-02-23T00:06:21;7.40;99.90
1005;DHT22;491;53.480;10.174;2023-02-23T00:08:47;7.40;99.90
1005;DHT22;491;53.480;10.174;2023-02-23T00:11:14;7.40;99.90
1005;DHT22;491;53.480;10.174;2023-02-23T00:13:41;7.40;99.90
1005;DHT22;491;53.480;10.174;2023-02-23T00:16:21;7.40;99.90
1005;DHT22;491;53.480;10.174;2023-02-23T00:18:48;7.40;99.90
1005;DHT22;491;53.480;10.174;2023-02-23T00:21:17;7.30;99.90
1005;DHT22;491;53.480;10.174;2023-02-23T00:23:54;7.30;99.90
1005;DHT22;491;53.480;10.174;2023-02-23T00:26:23;7.30;99.90
1005;DHT22;491;53.480;10.174;2023-02-23T00:28:49;7.30;99.90
1005;DHT22;491;53.480;10.174;2023-02-23T00:31:19;7.30;99.90
1005;DHT22;491;53.480;10.174;2023-02-23T00:33:54;7.40;99.90
1005;DHT22;491;53.480;10.174;2023-02-23T00:36:21;7.30;99.90
1005;DHT22;491;53.480;10.174;2023-02-23T00:38:51;7.30;99.90
1005;DHT22;491;53.480;10.174;2023-02-23T00:41:17;7.30;99.90
1005;DHT22;491;53.480;10.174;2023-02-23T00:43:56;7.30;99.90
1005;DHT22;491;53.480;10.174;2023-02-23T00:46:24;7.30;99.90
1005;DHT22;491;53.480;10.174;2023-02-23T00:48:51;7.30;99.90
1005;DHT22;491;53.480;10.174;2023-02-23T00:51:20;7.30;99.90
1005;DHT22;491;53.480;10.174;2023-02-23T00:53:45;7.30;99.90
1005;DHT22;491;53.480;10.174;2023-02-23T00:56:13;7.30;99.90
1005;DHT22;491;53.480;10.174;2023-02-23T00:58:40;7.30;99.90
1005;DHT22;491;53.480;10.174;2023-02-23T01:01:07;7.30;99.90
1005;DHT22;491;53.480;10.174;2023-02-23T01:03:34;7.30;99.90
1005;DHT22;491;53.480;10.174;2023-02-23T01:06:01;7.30;99.90
1005;DHT22;491;53.480;10.174;2023-02-23T01:08:30;7.30;99.90
1005;DHT22;491;53.480;10.174;2023-02-23T01:10:56;7.30;99.90
1005;DHT22;491;53.480;10.174;2023-02-23T01:13:23;7.20;99.90
1005;DHT22;491;53.480;10.174;2023-02-23T01:15:49;7.20;99.90
1005;DHT22;491;53.480;10.174;2023-02-23T01:18:19;7.20;99.90
1005;DHT22;491;53.480;10.174;2023-02-23T01:20:46;7.20;99.90
1005;DHT22;491;53.480;10.174;2023-02-23T01:23:12;7.20;99.90
1005;DHT22;491;53.480;10.174;2023-02-23T01:25:39;7.20;99.90
1005;DHT22;491;53.480;10.174;2023-02-23T01:28:05;7.10;99.90
1005;DHT22;491;53.480;10.174;2023-02-23T01:30:30;7.20;99.90
1005;DHT22;491;53.480;10.174;2023-02-23T01:32:56;7.20;99.90
1005;DHT22;491;53.480;10.174;2023-02-23T01:35:21;7.10;99.90
1005;DHT22;491;53.480;10.174;2023-02-23T01:37:47;7.10;99.90
1005;DHT22;491;53.480;10.174;2023-02-23T01:40:20;7.10;99.90
1005;DHT22;491;53.480;10.174;2023-02-23T01:43:09;7.10;99.90
1005;DHT22;491;53.480;10.174;2023-02-23T01:45:39;7.20;99.90
1005;DHT22;491;53.480;10.174;2023-02-23T01:48:07;7.20;99.90
1005;DHT22;491;53.480;10.174;2023-02-23T01:50:42;7.10;99.90
1005;DHT22;491;53.480;10.174;2023-02-23T01:53:09;7.10;99.90
1005;DHT22;491;53.480;10.174;2023-02-23T01:55:35;7.10;99.90
1005;DHT22;491;53.480;10.174;2023-02-23T01:58:08;7.00;99.90
1005;DHT22;491;53.480;10.174;2023-02-23T02:00:43;7.00;99.90
1005;DHT22;491;53.480;10.174;2023-02-23T02:03:14;6.90;99.90
1005;DHT22;491;53.480;10.174;2023-02-23T02:05:41;7.00;99.90
1005;DHT22;491;53.480;10.174;2023-02-23T02:08:07;7.00;99.90
1005;DHT22;491;53.480;10.174;2023-02-23T02:10:35;7.00;99.90
1005;DHT22;491;53.480;10.174;2023-02-23T02:13:06;7.00;99.90
1005;DHT22;491;53.480;10.174;2023-02-23T02:15:37;7.00;99.90
1005;DHT22;491;53.480;10.174;2023-02-23T02:26:48;7.00;99.90
1005;DHT22;491;53.480;10.174;2023-02-23T02:32:34;7.00;99.90
1005;DHT22;491;53.480;10.174;2023-02-23T02:38:21;7.00;99.90
1005;DHT22;491;53.480;10.174;2023-02-23T02:41:00;6.90;99.90
1005;DHT22;491;53.480;10.174;2023-02-23T02:43:42;6.90;99.90
1005;DHT22;491;53.480;10.174;2023-02-23T02:46:26;6.90;99.90
1005;DHT22;491;53.480;10.174;2023-02-23T02:51:46;6.90;99.90
1005;DHT22;491;53.480;10.174;2023-02-23T02:54:32;7.00;99.90
1005;DHT22;491;53.480;10.174;2023-02-23T02:57:02;6.90;99.90
1005;DHT22;491;53.480;10.174;2023-02-23T02:59:28;6.90;99.90
1005;DHT22;491;53.480;10.174;2023-02-23T03:02:16;6.90;99.90
1005;DHT22;491;53.480;10.174;2023-02-23T03:05:00;6.90;99.90
1005;DHT22;491;53.480;10.174;2023-02-23T03:07:52;6.80;99.90
1005;DHT22;491;53.480;10.174;2023-02-23T03:10:46;6.80;99.90
1005;DHT22;491;53.480;10.174;2023-02-23T03:14:00;6.90;99.90
1005;DHT22;491;53.480;10.174;2023-02-23T03:17:12;6.80;99.90
1005;DHT22;491;53.480;10.174;2023-02-23T03:20:29;6.70;99.90
1005;DHT22;491;53.480;10.174;2023-02-23T03:27:05;6.70;99.90
1005;DHT22;491;53.480;10.174;2023-02-23T03:30:06;6.60;99.90
1005;DHT22;491;53.480;10.174;2023-02-23T03:32:55;6.60;99.90
1005;DHT22;491;53.480;10.174;2023-02-23T03:35:54;6.50;99.90
1005;DHT22;491;53.480;10.174;2023-02-23T03:39:18;6.50;99.90
1005;DHT22;491;53.480;10.174;2023-02-23T03:41:54;6.50;99.90
1005;DHT22;491;53.480;10.174;2023-02-23T03:44:42;6.60;99.90
1005;DHT22;491;53.480;10.174;2023-02-23T03:47:32;6.60;99.90
1005;DHT22;491;53.480;10.174;2023-02-23T03:50:30;6.60;99.90
1005;DHT22;491;53.480;10.174;2023-02-23T03:53:22;6.60;99.90
1005;DHT22;491;53.480;10.174;2023-02-23T03:56:08;6.60;99.90
1005;DHT22;491;53.480;10.174;2023-02-23T03:58:57;6.50;99.90
1005;DHT22;491;53.480;10.174;2023-02-23T04:01:42;6.60;99.90
1005;DHT22;491;53.480;10.174;2023-02-23T04:04:27;6.60;99.90
1005;DHT22;491;53.480;10.174;2023-02-23T04:07:16;6.60;99.90
1005;DHT22;491;53.480;10.174;2023-02-23T04:10:01;6.60;99.90
1005;DHT22;491;53.480;10.174;2023-02-23T04:13:10;6.60;99.90
1005;DHT22;491;53.480;10.174;2023-02-23T04:15:54;6.60;99.90
1005;DHT22;491;53.480;10.174;2023-02-23T04:18:24;6.60;99.90
1005;DHT22;491;53.480;10.174;2023-02-23T04:20:50;6.60;99.90
1005;DHT22;491;53.480;10.174;2023-02-23T04:23:17;6.50;99.90
1005;DHT22;491;53.480;10.174;2023-02-23T04:25:42;6.50;99.90
1005;DHT22;491;53.480;10.174;2023-02-23T04:28:08;6.50;99.90
1005;DHT22;491;53.480;10.174;2023-02-23T04:30:34;6.60;99.90
1005;DHT22;491;53.480;10.174;2023-02-23T04:32:59;6.50;99.90
1005;DHT22;491;53.480;10.174;2023-02-23T04:35:26;6.60;99.90
1005;DHT22;491;53.480;10.174;2023-02-23T04:37:53;6.60;99.90
1005;DHT22;491;53.480;10.174;2023-02-23T04:40:18;6.70;99.90
1005;DHT22;491;53.480;10.174;2023-02-23T04:42:44;6.70;99.90
1005;DHT22;491;53.480;10.174;2023-02-23T04:45:09;6.70;99.90
1005;DHT22;491;53.480;10.174;2023-02-23T04:47:35;6.70;99.90
1005;DHT22;491;53.480;10.174;2023-02-23T04:50:02;6.60;99.90
1005;DHT22;491;53.480;10.174;2023-02-23T04:52:27;6.70;99.90
1005;DHT22;491;53.480;10.174;2023-02-23T04:54:53;6.70;99.90
1005;DHT22;491;53.480;10.174;2023-02-23T04:57:18;6.70;99.90
1005;DHT22;491;53.480;10.174;2023-02-23T04:59:44;6.80;99.90
1005;DHT22;491;53.480;10.174;2023-02-23T05:02:10;6.70;99.90
1005;DHT22;491;53.480;10.174;2023-02-23T05:04:36;6.70;99.90
1005;DHT22;491;53.480;10.174;2023-02-23T05:07:02;6.80;99.90
1005;DHT22;491;53.480;10.174;2023-02-23T05:09:28;6.70;99.90
1005;DHT22;491;53.480;10.174;2023-02-23T05:11:54;6.70;99.90
1005;DHT22;491;53.480;10.174;2023-02-23T05:14:19;6.70;99.90
1005;DHT22;491;53.480;10.174;2023-02-23T05:16:45;6.80;99.90
1005;DHT22;491;53.480;10.174;2023-02-23T05:19:10;6.70;99.90
1005;DHT22;491;53.480;10.174;2023-02-23T05:21:36;6.70;99.90
1005;DHT22;491;53.480;10.174;2023-02-23T05:24:03;6.80;99.90
1005;DHT22;491;53.480;10.174;2023-02-23T05:26:28;6.80;99.90
1005;DHT22;491;53.480;10.174;2023-02-23T05:28:54;6.80;99.90
1005;DHT22;491;53.480;10.174;2023-02-23T05:31:21;6.80;99.90
1005;DHT22;491;53.480;10.174;2023-02-23T05:33:47;6.80;99.90
1005;DHT22;491;53.480;10.174;2023-02-23T05:36:15;6.80;99.90
1005;DHT22;491;53.480;10.174;2023-02-23T05:38:41;6.80;99.90
1005;DHT22;491;53.480;10.174;2023-02-23T05:41:09;6.80;99.90
1005;DHT22;491;53.480;10.174;2023-02-23T05:43:35;6.80;99.90
1005;DHT22;491;53.480;10.174;2023-02-23T05:46:04;6.80;99.90
1005;DHT22;491;53.480;10.174;2023-02-23T05:48:29;6.80;99.90
1005;DHT22;491;53.480;10.174;2023-02-23T05:51:00;6.90;99.90
1005;DHT22;491;53.480;10.174;2023-02-23T05:53:25;6.80;99.90
1005;DHT22;491;53.480;10.174;2023-02-23T05:55:51;6.70;99.90
1005;DHT22;491;53.480;10.174;2023-02-23T05:58:16;6.70;99.90
1005;DHT22;491;53.480;10.174;2023-02-23T06:00:42;6.70;99.90
1005;DHT22;491;53.480;10.174;2023-02-23T06:03:07;6.70;99.90
1005;DHT22;491;53.480;10.174;2023-02-23T06:05:33;6.70;99.90
1005;DHT22;491;53.480;10.174;2023-02-23T06:07:58;6.70;99.90
1005;DHT22;491;53.480;10.174;2023-02-23T06:10:24;6.60;99.90
1005;DHT22;491;53.480;10.174;2023-02-23T06:12:49;6.60;99.90
1005;DHT22;491;53.480;10.174;2023-02-23T06:15:15;6.60;99.90
1005;DHT22;491;53.480;10.174;2023-02-23T06:17:41;6.60;99.90
1005;DHT22;491;53.480;10.174;2023-02-23T06:20:08;6.50;99.90
1005;DHT22;491;53.480;10.174;2023-02-23T06:22:33;6.60;99.90
1005;DHT22;491;53.480;10.174;2023-02-23T06:24:59;6.60;99.90
1005;DHT22;491;53.480;10.174;2023-02-23T06:27:24;6.60;99.90
1005;DHT22;491;53.480;10.174;2023-02-23T06:29:53;6.70;99.90
1005;DHT22;491;53.480;10.174;2023-02-23T06:32:18;6.60;99.90
1005;DHT22;491;53.480;10.174;2023-02-23T06:34:44;6.60;99.90
1005;DHT22;491;53.480;10.174;2023-02-23T06:37:09;6.60;99.90
1005;DHT22;491;53.480;10.174;2023-02-23T06:39:36;6.60;99.90
1005;DHT22;491;53.480;10.174;2023-02-23T06:42:01;6.60;99.90
1005;DHT22;491;53.480;10.174;2023-02-23T06:44:27;6.70;99.90
1005;DHT22;491;53.480;10.174;2023-02-23T06:46:52;6.60;99.90
1005;DHT22;491;53.480;10.174;2023-02-23T06:49:18;6.60;99.90
1005;DHT22;491;53.480;10.174;2023-02-23T06:51:44;6.70;99.90
1005;DHT22;491;53.480;10.174;2023-02-23T06:54:09;6.70;99.90
1005;DHT22;491;53.480;10.174;2023-02-23T06:56:38;6.80;99.90
1005;DHT22;491;53.480;10.174;2023-02-23T06:59:03;6.70;99.90
1005;DHT22;491;53.480;10.174;2023-02-23T07:01:31;6.80;99.90
1005;DHT22;491;53.480;10.174;2023-02-23T07:03:57;6.70;99.90
1005;DHT22;491;53.480;10.174;2023-02-23T07:06:26;6.70;99.90
1005;DHT22;491;53.480;10.174;2023-02-23T07:08:51;6.70;99.90
1005;DHT22;491;53.480;10.174;2023-02-23T07:11:17;6.80;99.90
1005;DHT22;491;53.480;10.174;2023-02-23T07:13:43;6.80;99.90
1005;DHT22;491;53.480;10.174;2023-02-23T07:16:09;6.70;99.90
1005;DHT22;491;53.480;10.174;2023-02-23T07:18:35;6.80;99.90
1005;DHT22;491;53.480;10.174;2023-02-23T07:21:00;6.70;99.90
1005;DHT22;491;53.480;10.174;2023-02-23T07:23:26;6.70;99.90
1005;DHT22;491;53.480;10.174;2023-02-23T07:25:53;6.80;99.90
1005;DHT22;491;53.480;10.174;2023-02-23T07:28:21;6.80;99.90
1005;DHT22;491;53.480;10.174;2023-02-23T07:30:49;6.90;99.90
1005;DHT22;491;53.480;10.174;2023-02-23T07:33:15;6.90;99.90
1005;DHT22;491;53.480;10.174;2023-02-23T07:35:41;6.90;99.90
1005;DHT22;491;53.480;10.174;2023-02-23T07:38:07;6.90;99.90
1005;DHT22;491;53.480;10.174;2023-02-23T07:40:33;6.90;99.90
1005;DHT22;491;53.480;10.174;2023-02-23T07:42:58;6.90;99.90
1005;DHT22;491;53.480;10.174;2023-02-23T07:45:25;6.90;99.90
1005;DHT22;491;53.480;10.174;2023-02-23T07:47:50;6.90;99.90
1005;DHT22;491;53.480;10.174;2023-02-23T07:50:16;6.90;99.90
1005;DHT22;491;53.480;10.174;2023-02-23T07:52:42;6.90;99.90
1005;DHT22;491;53.480;10.174;2023-02-23T07:55:09;7.00;99.90
1005;DHT22;491;53.480;10.174;2023-02-23T07:57:35;7.00;99.90
1005;DHT22;491;53.480;10.174;2023-02-23T08:00:00;7.00;99.90
1005;DHT22;491;53.480;10.174;2023-02-23T08:02:26;7.10;99.90
1005;DHT22;491;53.480;10.174;2023-02-23T08:04:57;7.10;99.90
1005;DHT22;491;53.480;10.174;2023-02-23T08:07:23;7.10;99.90
1005;DHT22;491;53.480;10.174;2023-02-23T08:09:50;7.20;99.90
1005;DHT22;491;53.480;10.174;2023-02-23T08:12:18;7.20;99.90
1005;DHT22;491;53.480;10.174;2023-02-23T08:14:44;7.30;99.90
1005;DHT22;491;53.480;10.174;2023-02-23T08:17:10;7.30;99.90
1005;DHT22;491;53.480;10.174;2023-02-23T08:19:36;7.20;99.90
1005;DHT22;491;53.480;10.174;2023-02-23T08:22:03;7.30;99.90
1005;DHT22;491;53.480;10.174;2023-02-23T08:24:38;7.20;99.90
1005;DHT22;491;53.480;10.174;2023-02-23T08:27:03;7.30;99.90
1005;DHT22;491;53.480;10.174;2023-02-23T08:29:29;7.30;99.90
1005;DHT22;491;53.480;10.174;2023-02-23T08:31:54;7.30;99.90
1005;DHT22;491;53.480;10.174;2023-02-23T08:34:21;7.30;99.90
1005;DHT22;491;53.480;10.174;2023-02-23T08:36:50;7.40;99.90
1005;DHT22;491;53.480;10.174;2023-02-23T08:39:15;7.40;99.90
1005;DHT22;491;53.480;10.174;2023-02-23T08:41:41;7.40;99.90
1005;DHT22;491;53.480;10.174;2023-02-23T08:44:06;7.40;99.90
1005;DHT22;491;53.480;10.174;2023-02-23T08:46:32;7.40;99.90
1005;DHT22;491;53.480;10.174;2023-02-23T08:48:58;7.40;99.90
1005;DHT22;491;53.480;10.174;2023-02-23T08:51:24;7.50;99.90
1005;DHT22;491;53.480;10.174;2023-02-23T08:53:50;7.50;99.90
1005;DHT22;491;53.480;10.174;2023-02-23T08:56:15;7.50;99.90
1005;DHT22;491;53.480;10.174;2023-02-23T08:58:42;7.50;99.90
1005;DHT22;491;53.480;10.174;2023-02-23T09:01:15;7.50;99.90
1005;DHT22;491;53.480;10.174;2023-02-23T09:03:41;7.60;99.90
1005;DHT22;491;53.480;10.174;2023-02-23T09:06:11;7.60;99.90
1005;DHT22;491;53.480;10.174;2023-02-23T09:08:37;7.60;99.90
1005;DHT22;491;53.480;10.174;2023-02-23T09:11:06;7.60;99.90
1005;DHT22;491;53.480;10.174;2023-02-23T09:13:32;7.70;99.90
1005;DHT22;491;53.480;10.174;2023-02-23T09:15:57;7.80;99.90
1005;DHT22;491;53.480;10.174;2023-02-23T09:18:23;7.80;99.90
1005;DHT22;491;53.480;10.174;2023-02-23T09:20:53;7.80;99.90
1005;DHT22;491;53.480;10.174;2023-02-23T09:23:19;7.90;99.90
1005;DHT22;491;53.480;10.174;2023-02-23T09:25:45;7.90;99.90
1005;DHT22;491;53.480;10.174;2023-02-23T09:28:12;7.90;99.90
1005;DHT22;491;53.480;10.174;2023-02-23T09:30:39;7.90;99.90
1005;DHT22;491;53.480;10.174;2023-02-23T09:33:05;7.90;99.90
1005;DHT22;491;53.480;10.174;2023-02-23T09:35:32;7.90;99.90
1005;DHT22;491;53.480;10.174;2023-02-23T09:37:58;7.90;99.90
1005;DHT22;491;53.480;10.174;2023-02-23T09:40:29;8.00;99.90
1005;DHT22;491;53.480;10.174;2023-02-23T09:46:12;8.00;99.90
1005;DHT22;491;53.480;10.174;2023-02-23T09:48:43;8.00;99.90
1005;DHT22;491;53.480;10.174;2023-02-23T09:51:14;8.00;99.90
1005;DHT22;491;53.480;10.174;2023-02-23T09:53:44;8.00;99.90
1005;DHT22;491;53.480;10.174;2023-02-23T09:56:17;8.00;99.90
1005;DHT22;491;53.480;10.174;2023-02-23T09:58:43;8.00;99.90
1005;DHT22;491;53.480;10.174;2023-02-23T10:06:21;8.00;99.90
1005;DHT22;491;53.480;10.174;2023-02-23T10:14:22;7.90;99.90
1005;DHT22;491;53.480;10.174;2023-02-23T10:19:33;7.90;99.90
1005;DHT22;491;53.480;10.174;2023-02-23T10:22:03;7.90;99.90
1005;DHT22;491;53.480;10.174;2023-02-23T10:24:41;7.90;99.90
1005;DHT22;491;53.480;10.174;2023-02-23T10:27:20;7.80;99.90
1005;DHT22;491;53.480;10.174;2023-02-23T10:29:53;7.80;99.90
1005;DHT22;491;53.480;10.174;2023-02-23T10:32:41;7.70;99.90
1005;DHT22;491;53.480;10.174;2023-02-23T10:35:16;7.70;99.90
1005;DHT22;491;53.480;10.174;2023-02-23T10:37:41;7.70;99.90
1005;DHT22;491;53.480;10.174;2023-02-23T10:40:17;7.70;99.90
1005;DHT22;491;53.480;10.174;2023-02-23T10:42:45;7.80;99.90
1005;DHT22;491;53.480;10.174;2023-02-23T10:45:19;7.90;99.90
1005;DHT22;491;53.480;10.174;2023-02-23T10:47:51;8.10;99.90
1005;DHT22;491;53.480;10.174;2023-02-23T10:50:18;8.30;99.90
1005;DHT22;491;53.480;10.174;2023-02-23T10:52:47;8.40;99.90
1005;DHT22;491;53.480;10.174;2023-02-23T10:57:48;8.50;99.90
1005;DHT22;491;53.480;10.174;2023-02-23T11:02:41;8.50;99.90
1005;DHT22;491;53.480;10.174;2023-02-23T11:05:43;8.50;99.90
1005;DHT22;491;53.480;10.174;2023-02-23T11:08:33;8.50;99.90
1005;DHT22;491;53.480;10.174;2023-02-23T11:11:02;8.40;99.90
1005;DHT22;491;53.480;10.174;2023-02-23T11:13:35;8.30;99.90
1005;DHT22;491;53.480;10.174;2023-02-23T11:16:09;8.30;99.90
1005;DHT22;491;53.480;10.174;2023-02-23T11:18:36;8.40;99.90
1005;DHT22;491;53.480;10.174;2023-02-23T11:21:02;8.30;99.90
1005;DHT22;491;53.480;10.174;2023-02-23T11:23:36;8.30;99.90
1005;DHT22;491;53.480;10.174;2023-02-23T11:26:19;8.20;99.90
1005;DHT22;491;53.480;10.174;2023-02-23T11:28:51;8.20;99.90
1005;DHT22;491;53.480;10.174;2023-02-23T11:31:20;8.10;99.90
1005;DHT22;491;53.480;10.174;2023-02-23T11:33:47;8.10;99.90
1005;DHT22;491;53.480;10.174;2023-02-23T11:41:29;8.00;99.90
1005;DHT22;491;53.480;10.174;2023-02-23T11:43:58;8.00;99.90
1005;DHT22;491;53.480;10.174;2023-02-23T11:46:25;7.90;99.90
1005;DHT22;491;53.480;10.174;2023-02-23T11:48:56;7.90;99.90
1005;DHT22;491;53.480;10.174;2023-02-23T11:51:36;7.90;99.90
1005;DHT22;491;53.480;10.174;2023-02-23T11:54:03;7.90;99.90
1005;DHT22;491;53.480;10.174;2023-02-23T11:56:32;8.00;99.90
1005;DHT22;491;53.480;10.174;2023-02-23T11:59:01;7.90;99.90
1005;DHT22;491;53.480;10.174;2023-02-23T12:01:37;8.10;99.90
1005;DHT22;491;53.480;10.174;2023-02-23T12:04:06;8.50;99.90
1005;DHT22;491;53.480;10.174;2023-02-23T12:06:39;8.70;99.90
1005;DHT22;491;53.480;10.174;2023-02-23T12:09:16;8.90;99.90
1005;DHT22;491;53.480;10.174;2023-02-23T12:11:49;9.10;99.90
1005;DHT22;491;53.480;10.174;2023-02-23T12:14:25;9.10;99.90
1005;DHT22;491;53.480;10.174;2023-02-23T12:16:58;9.30;99.90
1005;DHT22;491;53.480;10.174;2023-02-23T12:19:29;9.20;99.90
1005;DHT22;491;53.480;10.174;2023-02-23T12:22:06;9.30;99.90
1005;DHT22;491;53.480;10.174;2023-02-23T12:27:14;9.10;99.90
1005;DHT22;491;53.480;10.174;2023-02-23T12:35:11;9.10;99.90
1005;DHT22;491;53.480;10.174;2023-02-23T12:37:40;9.00;99.90
1005;DHT22;491;53.480;10.174;2023-02-23T12:40:14;9.00;99.90
1005;DHT22;491;53.480;10.174;2023-02-23T12:42:48;9.00;99.90
1005;DHT22;491;53.480;10.174;2023-02-23T12:48:17;8.80;99.90
1005;DHT22;491;53.480;10.174;2023-02-23T12:50:52;8.80;99.90
1005;DHT22;491;53.480;10.174;2023-02-23T12:56:30;8.80;99.90
1005;DHT22;491;53.480;10.174;2023-02-23T13:02:03;8.80;99.90
1005;DHT22;491;53.480;10.174;2023-02-23T13:15:55;8.60;99.90
1005;DHT22;491;53.480;10.174;2023-02-23T13:18:27;8.60;99.90
1005;DHT22;491;53.480;10.174;2023-02-23T13:28:56;8.60;99.90
1005;DHT22;491;53.480;10.174;2023-02-23T13:31:26;8.70;99.90
1005;DHT22;491;53.480;10.174;2023-02-23T13:33:55;8.70;99.90
1005;DHT22;491;53.480;10.174;2023-02-23T13:36:26;8.70;99.90
1005;DHT22;491;53.480;10.174;2023-02-23T13:39:24;8.70;99.90
1005;DHT22;491;53.480;10.174;2023-02-23T13:44:51;8.70;99.90
1005;DHT22;491;53.480;10.174;2023-02-23T13:47:48;8.60;99.90
1005;DHT22;491;53.480;10.174;2023-02-23T13:53:06;8.50;99.90
1005;DHT22;491;53.480;10.174;2023-02-23T13:55:35;8.50;99.90
1005;DHT22;491;53.480;10.174;2023-02-23T13:58:10;8.50;99.90
1005;DHT22;491;53.480;10.174;2023-02-23T14:00:43;8.40;99.90
1005;DHT22;491;53.480;10.174;2023-02-23T14:03:25;8.40;99.90
1005;DHT22;491;53.480;10.174;2023-02-23T14:05:56;8.40;99.90
1005;DHT22;491;53.480;10.174;2023-02-23T14:08:31;8.40;99.90
1005;DHT22;491;53.480;10.174;2023-02-23T14:10:58;8.40;99.90
1005;DHT22;491;53.480;10.174;2023-02-23T14:13:32;8.40;99.90
1005;DHT22;491;53.480;10.174;2023-02-23T14:16:17;8.40;99.90
1005;DHT22;491;53.480;10.174;2023-02-23T14:21:59;8.20;99.90
1005;DHT22;491;53.480;10.174;2023-02-23T14:24:27;8.40;99.90
1005;DHT22;491;53.480;10.174;2023-02-23T14:27:14;8.40;99.90
1005;DHT22;491;53.480;10.174;2023-02-23T14:30:11;8.50;99.90
1005;DHT22;491;53.480;10.174;2023-02-23T14:32:40;8.40;99.90
1005;DHT22;491;53.480;10.174;2023-02-23T14:38:02;8.50;99.90
1005;DHT22;491;53.480;10.174;2023-02-23T14:40:34;8.50;99.90
1005;DHT22;491;53.480;10.174;2023-02-23T14:45:56;8.50;99.90
1005;DHT22;491;53.480;10.174;2023-02-23T14:48:22;8.40;99.90
1005;DHT22;491;53.480;10.174;2023-02-23T14:50:48;8.30;99.90
1005;DHT22;491;53.480;10.174;2023-02-23T14:53:18;8.40;99.90
1005;DHT22;491;53.480;10.174;2023-02-23T14:55:48;8.40;99.90
1005;DHT22;491;53.480;10.174;2023-02-23T14:58:29;8.30;99.90
1005;DHT22;491;53.480;10.174;2023-02-23T15:00:55;8.40;99.90
1005;DHT22;491;53.480;10.174;2023-02-23T15:03:21;8.50;99.90
1005;DHT22;491;53.480;10.174;2023-02-23T15:05:58;8.50;99.90
1005;DHT22;491;53.480;10.174;2023-02-23T15:08:26;8.40;99.90
1005;DHT22;491;53.480;10.174;2023-02-23T15:10:59;8.40;99.90
1005;DHT22;491;53.480;10.174;2023-02-23T15:13:30;8.40;99.90
1005;DHT22;491;53.480;10.174;2023-02-23T15:16:00;8.50;99.90
1005;DHT22;491;53.480;10.174;2023-02-23T15:21:51;8.60;99.90
1005;DHT22;491;53.480;10.174;2023-02-23T15:24:21;8.60;99.90
1005;DHT22;491;53.480;10.174;2023-02-23T15:26:49;8.60;99.90
1005;DHT22;491;53.480;10.174;2023-02-23T15:29:24;8.60;99.90
1005;DHT22;491;53.480;10.174;2023-02-23T15:52:02;8.40;99.90
1005;DHT22;491;53.480;10.174;2023-02-23T15:54:29;8.60;99.90
1005;DHT22;491;53.480;10.174;2023-02-23T15:57:02;8.60;99.90
1005;DHT22;491;53.480;10.174;2023-02-23T15:59:34;8.60;99.90
1005;DHT22;491;53.480;10.174;2023-02-23T16:02:01;8.80;99.90
1005;DHT22;491;53.480;10.174;2023-02-23T16:04:32;8.70;99.90
1005;DHT22;491;53.480;10.174;2023-02-23T16:07:24;8.40;99.90
1005;DHT22;491;53.480;10.174;2023-02-23T16:10:18;8.30;99.90
1005;DHT22;491;53.480;10.174;2023-02-23T16:12:48;8.30;99.90
1005;DHT22;491;53.480;10.174;2023-02-23T16:15:24;8.30;99.90
1005;DHT22;491;53.480;10.174;2023-02-23T16:20:44;8.10;99.90
1005;DHT22;491;53.480;10.174;2023-02-23T16:23:36;8.20;99.90
1005;DHT22;491;53.480;10.174;2023-02-23T16:26:07;8.10;99.90
1005;DHT22;491;53.480;10.174;2023-02-23T16:28:35;8.00;99.90
1005;DHT22;491;53.480;10.174;2023-02-23T16:31:06;8.00;99.90
1005;DHT22;491;53.480;10.174;2023-02-23T16:38:37;7.80;99.90
1005;DHT22;491;53.480;10.174;2023-02-23T16:41:05;7.70;99.90
1005;DHT22;491;53.480;10.174;2023-02-23T16:43:38;7.70;99.90
1005;DHT22;491;53.480;10.174;2023-02-23T16:46:04;7.60;99.90
1005;DHT22;491;53.480;10.174;2023-02-23T16:50:58;7.60;99.90
1005;DHT22;491;53.480;10.174;2023-02-23T16:53:23;8.10;99.90
1005;DHT22;491;53.480;10.174;2023-02-23T16:55:54;7.60;99.90
1005;DHT22;491;53.480;10.174;2023-02-23T16:58:22;7.60;99.90
1005;DHT22;491;53.480;10.174;2023-02-23T17:00:49;7.50;99.90
1005;DHT22;491;53.480;10.174;2023-02-23T17:03:23;7.50;99.90
1005;DHT22;491;53.480;10.174;2023-02-23T17:05:49;7.60;99.90
1005;DHT22;491;53.480;10.174;2023-02-23T17:08:15;7.60;99.90
1005;DHT22;491;53.480;10.174;2023-02-23T17:10:42;7.50;99.90
1005;DHT22;491;53.480;10.174;2023-02-23T17:13:20;7.50;99.90
1005;DHT22;491;53.480;10.174;2023-02-23T17:15:48;7.40;99.90
1005;DHT22;491;53.480;10.174;2023-02-23T17:18:19;7.40;99.90
1005;DHT22;491;53.480;10.174;2023-02-23T17:20:44;7.40;99.90
1005;DHT22;491;53.480;10.174;2023-02-23T17:23:10;7.30;99.90
1005;DHT22;491;53.480;10.174;2023-02-23T17:25:36;7.30;99.90
1005;DHT22;491;53.480;10.174;2023-02-23T17:28:02;7.20;99.90
1005;DHT22;491;53.480;10.174;2023-02-23T17:30:28;7.20;99.90
1005;DHT22;491;53.480;10.174;2023-02-23T17:32:55;7.20;99.90
1005;DHT22;491;53.480;10.174;2023-02-23T17:35:21;7.20;99.90
1005;DHT22;491;53.480;10.174;2023-02-23T17:37:47;7.10;99.90
1005;DHT22;491;53.480;10.174;2023-02-23T17:40:16;7.00;99.90
1005;DHT22;491;53.480;10.174;2023-02-23T17:42:44;6.90;99.90
1005;DHT22;491;53.480;10.174;2023-02-23T17:45:10;6.90;99.90
1005;DHT22;491;53.480;10.174;2023-02-23T17:47:36;6.80;99.90
1005;DHT22;491;53.480;10.174;2023-02-23T17:50:05;6.70;99.90
1005;DHT22;491;53.480;10.174;2023-02-23T17:52:31;6.70;99.90
1005;DHT22;491;53.480;10.174;2023-02-23T17:54:56;6.60;96.80
1005;DHT22;491;53.480;10.174;2023-02-23T17:57:28;6.60;50.20
1005;DHT22;491;53.480;10.174;2023-02-23T17:59:55;7.10;99.90
1005;DHT22;491;53.480;10.174;2023-02-23T18:02:21;6.60;99.90
1005;DHT22;491;53.480;10.174;2023-02-23T18:04:48;6.50;99.90
1005;DHT22;491;53.480;10.174;2023-02-23T18:07:19;6.50;99.90
1005;DHT22;491;53.480;10.174;2023-02-23T18:09:45;6.50;99.90
1005;DHT22;491;53.480;10.174;2023-02-23T18:12:15;6.50;99.90
1005;DHT22;491;53.480;10.174;2023-02-23T18:14:40;6.50;99.90
1005;DHT22;491;53.480;10.174;2023-02-23T18:17:06;6.40;99.90
1005;DHT22;491;53.480;10.174;2023-02-23T18:19:32;6.50;99.90
1005;DHT22;491;53.480;10.174;2023-02-23T18:21:57;6.40;99.90
1005;DHT22;491;53.480;10.174;2023-02-23T18:24:25;6.40;99.90
1005;DHT22;491;53.480;10.174;2023-02-23T18:26:51;6.40;99.90
1005;DHT22;491;53.480;10.174;2023-02-23T18:29:16;6.40;99.90
1005;DHT22;491;53.480;10.174;2023-02-23T18:31:45;6.40;99.90
1005;DHT22;491;53.480;10.174;2023-02-23T18:34:12;6.40;99.90
1005;DHT22;491;53.480;10.174;2023-02-23T18:36:40;6.40;99.90
1005;DHT22;491;53.480;10.174;2023-02-23T18:39:07;6.40;99.90
1005;DHT22;491;53.480;10.174;2023-02-23T18:41:33;6.40;99.90
1005;DHT22;491;53.480;10.174;2023-02-23T18:44:01;6.40;99.90
1005;DHT22;491;53.480;10.174;2023-02-23T18:46:27;6.30;99.90
1005;DHT22;491;53.480;10.174;2023-02-23T18:48:53;6.30;99.90
1005;DHT22;491;53.480;10.174;2023-02-23T18:51:20;6.30;99.90
1005;DHT22;491;53.480;10.174;2023-02-23T18:53:48;5.70;99.90